createdAt,value
2023-04-09T00:00:44.204Z,1.80
2023-04-09T00:03:11.633Z,1.90
2023-04-09T00:05:40.409Z,1.90
2023-04-09T00:08:08.192Z,1.90
2023-04-09T00:10:35.196Z,1.90
2023-04-09T00:13:02.096Z,1.90
2023-04-09T00:15:31.697Z,1.80
2023-04-09T00:17:59.658Z,1.80
2023-04-09T00:20:26.840Z,1.80
2023-04-09T00:22:54.166Z,1.80
2023-04-09T00:25:21.128Z,1.90
2023-04-09T00:27:48.076Z,1.90
2023-04-09T00:30:15.070Z,1.90
2023-04-09T00:32:42.303Z,2.00
2023-04-09T00:35:09.583Z,1.90
2023-04-09T00:37:36.498Z,2.00
2023-04-09T00:40:04.251Z,2.00
2023-04-09T00:42:36.469Z,2.00
2023-04-09T00:45:07.502Z,2.00
2023-04-09T00:47:35.558Z,1.90
2023-04-09T00:50:03.218Z,1.90
2023-04-09T00:52:33.215Z,1.80
2023-04-09T00:55:01.550Z,1.80
2023-04-09T00:57:29.078Z,1.80
2023-04-09T00:59:56.241Z,1.80
2023-04-09T01:02:23.629Z,1.80
2023-04-09T01:04:51.650Z,1.90
2023-04-09T01:07:46.955Z,1.90
2023-04-09T01:10:38.317Z,1.90
2023-04-09T01:13:11.077Z,1.90
2023-04-09T01:15:52.210Z,1.80
2023-04-09T01:18:29.471Z,1.80
2023-04-09T01:21:11.940Z,1.70
2023-04-09T01:24:11.049Z,1.70
2023-04-09T01:27:06.888Z,1.70
2023-04-09T01:29:47.872Z,1.70
2023-04-09T01:32:18.727Z,1.70
2023-04-09T01:34:47.840Z,1.70
2023-04-09T01:37:17.197Z,1.60
2023-04-09T01:39:45.078Z,1.60
2023-04-09T01:42:13.060Z,1.50
2023-04-09T01:44:40.564Z,1.50
2023-04-09T01:47:08.715Z,1.50
2023-04-09T01:49:39.558Z,1.30
2023-04-09T01:52:07.380Z,1.20
2023-04-09T01:54:34.227Z,1.20
2023-04-09T01:57:01.283Z,1.10
2023-04-09T01:59:28.130Z,1.10
2023-04-09T02:02:08.177Z,1.10
2023-04-09T02:04:43.925Z,1.10
2023-04-09T02:07:18.649Z,1.10
2023-04-09T02:09:48.370Z,1.10
2023-04-09T02:12:19.105Z,1.20
2023-04-09T02:14:52.170Z,1.10
2023-04-09T02:17:20.195Z,1.10
2023-04-09T02:19:47.855Z,1.20
2023-04-09T02:22:16.260Z,1.20
2023-04-09T02:24:43.381Z,1.20
2023-04-09T02:27:10.613Z,1.10
2023-04-09T02:29:40.652Z,1.10
2023-04-09T02:32:07.893Z,1.00
2023-04-09T02:34:34.860Z,1.00
2023-04-09T02:37:01.924Z,1.00
2023-04-09T02:39:28.808Z,1.00
2023-04-09T02:41:56.329Z,0.90
2023-04-09T02:44:23.451Z,0.90
2023-04-09T02:46:51.548Z,0.90
2023-04-09T02:49:18.479Z,0.90
2023-04-09T02:51:45.449Z,0.80
2023-04-09T02:54:12.683Z,0.80
2023-04-09T02:56:39.553Z,0.80
2023-04-09T02:59:06.469Z,0.70
2023-04-09T03:01:33.442Z,0.70
2023-04-09T03:04:01.182Z,0.70
2023-04-09T03:06:28.501Z,0.60
2023-04-09T03:08:55.633Z,0.60
2023-04-09T03:11:23.168Z,0.60
2023-04-09T03:13:50.260Z,0.60
2023-04-09T03:16:17.465Z,0.60
2023-04-09T03:18:44.328Z,0.60
2023-04-09T03:21:13.624Z,0.60
2023-04-09T03:23:46.311Z,0.60
2023-04-09T03:26:13.332Z,0.50
2023-04-09T03:28:47.181Z,0.50
2023-04-09T03:31:14.223Z,0.50
2023-04-09T03:33:42.443Z,0.50
2023-04-09T03:36:10.391Z,0.50
2023-04-09T03:38:53.564Z,0.40
2023-04-09T03:41:29.464Z,0.40
2023-04-09T03:43:58.278Z,0.40
2023-04-09T03:46:29.286Z,0.40
2023-04-09T03:48:58.207Z,0.40
2023-04-09T03:51:33.768Z,0.40
2023-04-09T03:54:01.076Z,0.40
2023-04-09T03:56:27.917Z,0.40
2023-04-09T03:58:55.209Z,0.40
2023-04-09T04:01:27.455Z,0.40
2023-04-09T04:03:58.650Z,0.50
2023-04-09T04:06:34.355Z,0.50
2023-04-09T04:09:13.133Z,0.50
2023-04-09T04:11:49.139Z,0.50
2023-04-09T04:14:17.200Z,0.50
2023-04-09T04:16:48.282Z,0.60
2023-04-09T04:19:18.793Z,0.60
2023-04-09T04:21:48.676Z,0.50
2023-04-09T04:24:16.546Z,0.50
2023-04-09T04:26:44.005Z,0.50
2023-04-09T04:29:13.924Z,0.50
2023-04-09T04:32:01.383Z,0.50
2023-04-09T04:34:34.087Z,0.50
2023-04-09T04:37:07.941Z,0.40
2023-04-09T04:39:34.925Z,0.40
2023-04-09T04:42:06.481Z,0.50
2023-04-09T04:44:33.437Z,0.40
2023-04-09T04:47:11.522Z,0.40
2023-04-09T04:49:38.869Z,0.40
2023-04-09T04:52:07.813Z,0.40
2023-04-09T04:54:35.616Z,0.30
2023-04-09T04:57:02.868Z,0.30
2023-04-09T04:59:40.760Z,0.40
2023-04-09T05:02:10.243Z,0.40
2023-04-09T05:04:48.222Z,0.50
2023-04-09T05:07:17.931Z,0.40
2023-04-09T05:09:50.503Z,0.40
2023-04-09T05:12:18.118Z,0.30
2023-04-09T05:14:49.841Z,0.30
2023-04-09T05:17:17.151Z,0.30
2023-04-09T05:19:51.710Z,0.30
2023-04-09T05:22:21.247Z,0.50
2023-04-09T05:24:48.148Z,0.60
2023-04-09T05:27:18.141Z,0.80
2023-04-09T05:29:47.229Z,1.00
2023-04-09T05:32:14.099Z,1.00
2023-04-09T05:34:41.170Z,0.90
2023-04-09T05:37:08.861Z,0.90
2023-04-09T05:39:35.825Z,0.90
2023-04-09T05:42:03.731Z,0.90
2023-04-09T05:44:34.315Z,0.90
2023-04-09T05:47:12.132Z,1.10
2023-04-09T05:49:45.669Z,1.40
2023-04-09T05:52:17.058Z,1.60
2023-04-09T05:54:44.325Z,1.60
2023-04-09T05:57:14.640Z,1.70
2023-04-09T05:59:47.333Z,1.70
2023-04-09T06:02:15.337Z,1.90
2023-04-09T06:04:42.268Z,2.00
2023-04-09T06:07:09.909Z,2.20
2023-04-09T06:09:36.736Z,2.40
2023-04-09T06:12:04.202Z,2.50
2023-04-09T06:14:33.188Z,2.50
2023-04-09T06:17:00.432Z,2.60
2023-04-09T06:19:28.040Z,2.70
2023-04-09T06:21:54.976Z,2.90
2023-04-09T06:24:22.024Z,3.00
2023-04-09T06:26:49.152Z,3.10
2023-04-09T06:29:16.307Z,3.10
2023-04-09T06:31:43.288Z,3.20
2023-04-09T06:34:11.056Z,3.30
2023-04-09T06:36:40.421Z,3.50
2023-04-09T06:39:07.574Z,3.70
2023-04-09T06:41:34.613Z,3.70
2023-04-09T06:44:10.885Z,3.70
2023-04-09T06:46:37.999Z,3.70
2023-04-09T06:49:04.955Z,3.70
2023-04-09T06:51:31.956Z,3.90
2023-04-09T06:53:59.273Z,4.10
2023-04-09T06:56:26.115Z,4.20
2023-04-09T06:58:53.240Z,4.40
2023-04-09T07:01:20.541Z,4.40
2023-04-09T07:03:47.477Z,4.50
2023-04-09T07:06:14.382Z,4.50
2023-04-09T07:08:41.206Z,4.50
2023-04-09T07:11:08.436Z,4.60
2023-04-09T07:13:35.297Z,4.80
2023-04-09T07:16:02.292Z,4.90
2023-04-09T07:18:29.263Z,5.00
2023-04-09T07:20:56.283Z,5.20
2023-04-09T07:23:23.153Z,5.40
2023-04-09T07:25:50.055Z,5.70
2023-04-09T07:28:16.997Z,5.60
2023-04-09T07:30:43.903Z,5.60
2023-04-09T07:33:10.755Z,5.70
2023-04-09T07:35:37.762Z,5.80
2023-04-09T07:38:04.672Z,5.90
2023-04-09T07:40:31.559Z,6.00
2023-04-09T07:42:58.618Z,6.10
2023-04-09T07:45:25.856Z,6.30
2023-04-09T07:47:52.834Z,6.30
2023-04-09T07:50:19.887Z,6.40
2023-04-09T07:52:47.381Z,6.30
2023-04-09T07:55:14.788Z,6.20
2023-04-09T07:57:43.151Z,6.20
2023-04-09T08:00:10.781Z,6.50
2023-04-09T08:02:40.298Z,6.70
2023-04-09T08:05:08.078Z,6.90
2023-04-09T08:07:35.038Z,7.00
2023-04-09T08:10:01.997Z,7.20
2023-04-09T08:12:28.843Z,7.10
2023-04-09T08:14:56.157Z,7.10
2023-04-09T08:17:23.415Z,7.00
2023-04-09T08:19:50.432Z,6.80
2023-04-09T08:22:17.368Z,6.70
2023-04-09T08:24:44.254Z,6.70
2023-04-09T08:27:11.149Z,6.70
2023-04-09T08:29:40.599Z,6.80
2023-04-09T08:32:08.163Z,6.90
2023-04-09T08:34:35.273Z,7.00
2023-04-09T08:37:02.503Z,7.00
2023-04-09T08:39:29.435Z,7.00
2023-04-09T08:42:01.790Z,7.00
2023-04-09T08:44:29.426Z,6.90
2023-04-09T08:46:58.490Z,7.00
2023-04-09T08:49:26.536Z,7.10
2023-04-09T08:51:53.397Z,7.20
2023-04-09T08:54:20.356Z,7.50
2023-04-09T08:56:47.717Z,7.70
2023-04-09T08:59:21.319Z,8.00
2023-04-09T09:01:54.149Z,8.40
2023-04-09T09:04:21.299Z,8.60
2023-04-09T09:06:48.178Z,8.90
2023-04-09T09:09:16.834Z,9.10
2023-04-09T09:11:46.232Z,9.30
2023-04-09T09:14:18.122Z,9.30
2023-04-09T09:17:04.310Z,9.40
2023-04-09T09:19:35.897Z,9.40
2023-04-09T09:22:08.133Z,9.60
2023-04-09T09:24:49.227Z,9.80
2023-04-09T09:27:36.705Z,10.00
2023-04-09T09:30:08.789Z,10.20
2023-04-09T09:32:36.401Z,10.40
2023-04-09T09:35:05.645Z,10.60
2023-04-09T09:37:33.939Z,10.70
2023-04-09T09:40:01.695Z,10.90
2023-04-09T09:42:28.642Z,11.10
2023-04-09T09:44:56.047Z,11.00
2023-04-09T09:47:25.316Z,11.00
2023-04-09T09:49:52.656Z,11.10
2023-04-09T09:52:27.201Z,11.30
2023-04-09T09:54:55.821Z,11.50
2023-04-09T09:57:26.240Z,11.50
2023-04-09T10:00:01.848Z,11.50
2023-04-09T10:02:53.940Z,11.50
2023-04-09T10:05:25.037Z,11.40
2023-04-09T10:07:54.546Z,11.20
2023-04-09T10:10:22.823Z,10.80
2023-04-09T10:12:51.157Z,10.50
2023-04-09T10:15:19.451Z,10.40
2023-04-09T10:17:46.426Z,10.30
2023-04-09T10:20:19.723Z,10.20
2023-04-09T10:22:49.662Z,10.00
2023-04-09T10:25:17.064Z,10.00
2023-04-09T10:27:49.219Z,9.90
2023-04-09T10:30:36.685Z,10.00
2023-04-09T10:33:10.275Z,10.30
2023-04-09T10:35:37.580Z,10.30
2023-04-09T10:38:08.531Z,10.40
2023-04-09T10:40:40.182Z,10.40
2023-04-09T10:43:08.850Z,10.40
2023-04-09T10:45:42.471Z,10.50
2023-04-09T10:48:14.099Z,10.40
2023-04-09T10:50:45.659Z,10.40
2023-04-09T10:53:26.329Z,10.50
2023-04-09T10:55:54.280Z,10.50
2023-04-09T10:58:21.487Z,10.40
2023-04-09T11:00:49.621Z,10.40
2023-04-09T11:03:17.463Z,10.60
2023-04-09T11:05:45.163Z,10.80
2023-04-09T11:08:14.384Z,10.80
2023-04-09T11:10:44.084Z,10.80
2023-04-09T11:13:16.434Z,10.90
2023-04-09T11:15:45.024Z,11.10
2023-04-09T11:18:19.841Z,11.20
2023-04-09T11:20:47.121Z,11.20
2023-04-09T11:23:15.691Z,11.30
2023-04-09T11:25:42.530Z,11.30
2023-04-09T11:28:09.447Z,11.20
2023-04-09T11:30:37.555Z,11.00
2023-04-09T11:33:04.428Z,11.10
2023-04-09T11:35:35.349Z,11.20
2023-04-09T11:38:10.419Z,11.30
2023-04-09T11:40:45.480Z,11.40
2023-04-09T11:43:12.406Z,11.30
2023-04-09T11:45:39.297Z,11.30
2023-04-09T11:48:06.712Z,11.20
2023-04-09T11:50:33.961Z,11.20
2023-04-09T11:53:00.997Z,11.10
2023-04-09T11:55:29.666Z,11.10
2023-04-09T11:58:03.592Z,11.00
2023-04-09T12:00:32.371Z,11.00
2023-04-09T12:03:04.223Z,11.20
2023-04-09T12:05:33.818Z,11.30
2023-04-09T12:08:07.324Z,11.50
2023-04-09T12:10:37.755Z,11.60
2023-04-09T12:13:07.800Z,11.80
2023-04-09T12:15:37.217Z,12.00
2023-04-09T12:18:07.795Z,12.10
2023-04-09T12:20:37.618Z,12.20
2023-04-09T12:23:06.036Z,12.20
2023-04-09T12:25:36.889Z,12.30
2023-04-09T12:28:05.858Z,12.40
2023-04-09T12:30:33.843Z,12.50
2023-04-09T12:33:02.733Z,12.40
2023-04-09T12:35:29.749Z,12.50
2023-04-09T12:37:56.624Z,12.50
2023-04-09T12:40:23.477Z,12.50
2023-04-09T12:42:50.383Z,12.60
2023-04-09T12:45:18.558Z,12.70
2023-04-09T12:47:45.828Z,12.50
2023-04-09T12:50:14.965Z,12.30
2023-04-09T12:52:41.991Z,12.10
2023-04-09T12:55:09.482Z,12.00
2023-04-09T12:57:38.677Z,12.00
2023-04-09T13:00:07.836Z,12.10
2023-04-09T13:02:35.496Z,12.10
2023-04-09T13:05:03.129Z,12.20
2023-04-09T13:07:30.629Z,12.40
2023-04-09T13:09:58.122Z,12.40
2023-04-09T13:12:25.162Z,12.50
2023-04-09T13:14:54.366Z,12.60
2023-04-09T13:17:22.122Z,12.50
2023-04-09T13:19:49.902Z,12.50
2023-04-09T13:22:16.873Z,12.50
2023-04-09T13:24:43.690Z,12.40
2023-04-09T13:27:11.335Z,12.30
2023-04-09T13:29:38.922Z,12.20
2023-04-09T13:32:10.982Z,12.30
2023-04-09T13:34:39.617Z,12.20
2023-04-09T13:37:06.859Z,12.10
2023-04-09T13:39:34.008Z,12.00
2023-04-09T13:42:07.199Z,12.00
2023-04-09T13:44:37.052Z,12.00
2023-04-09T13:47:03.929Z,12.00
2023-04-09T13:49:31.007Z,12.10
2023-04-09T13:51:58.628Z,12.10
2023-04-09T13:54:27.345Z,12.10
2023-04-09T13:56:54.184Z,12.10
2023-04-09T13:59:21.077Z,12.20
2023-04-09T14:01:47.950Z,12.30
2023-04-09T14:04:15.295Z,12.40
2023-04-09T14:06:42.566Z,12.50
2023-04-09T14:09:10.475Z,12.60
2023-04-09T14:11:37.725Z,12.50
2023-04-09T14:14:04.890Z,12.50
2023-04-09T14:16:31.829Z,12.50
2023-04-09T14:18:58.979Z,12.40
2023-04-09T14:21:26.950Z,12.50
2023-04-09T14:23:53.989Z,12.50
2023-04-09T14:26:22.212Z,12.50
2023-04-09T14:28:51.718Z,12.60
2023-04-09T14:31:21.791Z,12.50
2023-04-09T14:33:49.032Z,12.40
2023-04-09T14:36:16.708Z,12.20
2023-04-09T14:38:43.945Z,12.00
2023-04-09T14:41:10.830Z,12.00
2023-04-09T14:43:37.768Z,11.90
2023-04-09T14:46:06.447Z,11.90
2023-04-09T14:48:33.415Z,11.90
2023-04-09T14:51:00.485Z,11.90
2023-04-09T14:53:27.446Z,12.00
2023-04-09T14:55:54.279Z,12.00
2023-04-09T14:58:22.557Z,12.00
2023-04-09T15:00:50.361Z,12.00
2023-04-09T15:03:17.604Z,12.00
2023-04-09T15:05:44.736Z,12.10
2023-04-09T15:08:12.893Z,12.00
2023-04-09T15:10:39.819Z,11.90
2023-04-09T15:13:07.335Z,11.90
2023-04-09T15:15:34.292Z,11.90
2023-04-09T15:18:05.677Z,11.80
2023-04-09T15:20:37.314Z,11.80
2023-04-09T15:23:04.396Z,11.80
2023-04-09T15:25:31.472Z,11.80
2023-04-09T15:27:59.121Z,11.80
2023-04-09T15:30:27.491Z,11.70
2023-04-09T15:32:54.509Z,11.70
2023-04-09T15:35:25.996Z,11.50
2023-04-09T15:37:54.704Z,11.40
2023-04-09T15:40:21.674Z,11.20
2023-04-09T15:42:48.587Z,11.10
2023-04-09T15:45:16.447Z,11.00
2023-04-09T15:47:47.331Z,11.00
2023-04-09T15:50:14.742Z,10.90
2023-04-09T15:52:42.312Z,10.90
2023-04-09T15:55:10.152Z,10.80
2023-04-09T15:57:38.786Z,10.70
2023-04-09T16:00:10.978Z,10.70
2023-04-09T16:02:39.020Z,10.70
2023-04-09T16:05:07.149Z,10.60
2023-04-09T16:07:34.147Z,10.60
2023-04-09T16:10:02.374Z,10.60
2023-04-09T16:12:29.463Z,10.60
2023-04-09T16:14:56.632Z,10.60
2023-04-09T16:17:24.928Z,10.50
2023-04-09T16:19:51.807Z,10.60
2023-04-09T16:22:18.829Z,10.60
2023-04-09T16:24:45.865Z,10.50
2023-04-09T16:27:14.437Z,10.40
2023-04-09T16:29:41.201Z,10.40
2023-04-09T16:32:08.287Z,10.40
2023-04-09T16:34:35.876Z,10.20
2023-04-09T16:37:02.963Z,10.20
2023-04-09T16:39:30.062Z,10.10
2023-04-09T16:42:02.377Z,10.10
2023-04-09T16:44:31.409Z,10.10
2023-04-09T16:46:58.337Z,10.00
2023-04-09T16:49:25.389Z,10.00
2023-04-09T16:51:53.216Z,9.90
2023-04-09T16:54:20.841Z,9.80
2023-04-09T16:56:48.870Z,9.80
2023-04-09T16:59:18.576Z,9.70
2023-04-09T17:01:45.709Z,9.70
2023-04-09T17:04:12.705Z,9.70
2023-04-09T17:06:39.703Z,9.60
2023-04-09T17:09:07.464Z,9.60
2023-04-09T17:11:37.969Z,9.50
2023-04-09T17:14:06.070Z,9.40
2023-04-09T17:16:33.547Z,9.40
2023-04-09T17:19:00.932Z,9.30
2023-04-09T17:21:27.883Z,9.30
2023-04-09T17:23:55.008Z,9.20
2023-04-09T17:26:21.935Z,9.20
2023-04-09T17:28:48.826Z,9.10
2023-04-09T17:31:16.508Z,9.10
2023-04-09T17:33:44.639Z,9.00
2023-04-09T17:36:11.448Z,9.00
2023-04-09T17:38:38.458Z,8.90
2023-04-09T17:41:07.473Z,8.80
2023-04-09T17:43:34.935Z,8.70
2023-04-09T17:46:01.838Z,8.60
2023-04-09T17:48:30.802Z,8.60
2023-04-09T17:50:58.954Z,8.60
2023-04-09T17:53:26.643Z,8.50
2023-04-09T17:55:53.478Z,8.40
2023-04-09T17:58:20.618Z,8.30
2023-04-09T18:00:47.643Z,8.20
2023-04-09T18:03:15.716Z,8.10
2023-04-09T18:05:43.556Z,8.10
2023-04-09T18:08:10.804Z,8.10
2023-04-09T18:10:37.805Z,8.10
2023-04-09T18:13:04.798Z,8.00
2023-04-09T18:15:32.927Z,8.00
2023-04-09T18:17:59.895Z,7.90
2023-04-09T18:20:28.262Z,7.80
2023-04-09T18:22:55.873Z,7.70
2023-04-09T18:25:23.382Z,7.70
2023-04-09T18:27:50.394Z,7.70
2023-04-09T18:30:18.979Z,7.60
2023-04-09T18:32:48.274Z,7.50
2023-04-09T18:35:15.729Z,7.40
2023-04-09T18:37:42.822Z,7.30
2023-04-09T18:40:18.601Z,7.30
2023-04-09T18:42:49.177Z,7.20
2023-04-09T18:45:16.419Z,7.20
2023-04-09T18:47:43.762Z,7.10
2023-04-09T18:50:12.617Z,7.00
2023-04-09T18:52:39.525Z,7.00
2023-04-09T18:55:07.249Z,6.90
2023-04-09T18:57:34.205Z,6.90
2023-04-09T19:00:03.158Z,6.90
2023-04-09T19:02:30.409Z,6.80
2023-04-09T19:04:58.879Z,6.80
2023-04-09T19:07:29.025Z,6.80
2023-04-09T19:09:55.972Z,6.70
2023-04-09T19:12:23.837Z,6.60
2023-04-09T19:14:50.707Z,6.60
2023-04-09T19:17:17.966Z,6.60
2023-04-09T19:19:45.250Z,6.50
2023-04-09T19:22:12.581Z,6.30
2023-04-09T19:24:39.493Z,6.30
2023-04-09T19:27:09.810Z,6.20
2023-04-09T19:29:36.815Z,6.20
2023-04-09T19:32:04.995Z,6.10
2023-04-09T19:34:31.885Z,6.10
2023-04-09T19:36:58.789Z,6.00
2023-04-09T19:39:25.796Z,5.90
2023-04-09T19:41:52.758Z,5.90
2023-04-09T19:44:19.576Z,5.80
2023-04-09T19:46:46.806Z,5.70
2023-04-09T19:49:14.859Z,5.80
2023-04-09T19:51:41.674Z,5.80
2023-04-09T19:54:10.914Z,5.70
2023-04-09T19:56:38.541Z,5.60
2023-04-09T19:59:05.804Z,5.60
2023-04-09T20:01:32.819Z,5.50
2023-04-09T20:03:59.982Z,5.40
2023-04-09T20:06:27.219Z,5.40
2023-04-09T20:08:57.369Z,5.40
2023-04-09T20:11:24.559Z,5.40
2023-04-09T20:13:52.072Z,5.30
2023-04-09T20:16:18.967Z,5.20
2023-04-09T20:18:46.866Z,5.20
2023-04-09T20:21:14.541Z,5.10
2023-04-09T20:23:41.808Z,5.10
2023-04-09T20:26:11.290Z,5.10
2023-04-09T20:28:38.479Z,5.00
2023-04-09T20:31:06.361Z,5.00
2023-04-09T20:33:33.602Z,5.00
2023-04-09T20:36:01.321Z,4.90
2023-04-09T20:38:28.557Z,4.90
2023-04-09T20:40:55.508Z,4.90
2023-04-09T20:43:22.693Z,4.80
2023-04-09T20:45:49.793Z,4.70
2023-04-09T20:48:18.582Z,4.60
2023-04-09T20:50:45.809Z,4.50
2023-04-09T20:53:13.230Z,4.50
2023-04-09T20:55:40.144Z,4.50
2023-04-09T20:58:07.696Z,4.50
2023-04-09T21:00:35.140Z,4.40
2023-04-09T21:03:02.394Z,4.30
2023-04-09T21:05:29.828Z,4.30
2023-04-09T21:07:56.718Z,4.30
2023-04-09T21:10:23.655Z,4.30
2023-04-09T21:12:51.082Z,4.30
2023-04-09T21:15:18.112Z,4.30
2023-04-09T21:17:46.324Z,4.40
2023-04-09T21:20:15.062Z,4.40
2023-04-09T21:22:42.189Z,4.50
2023-04-09T21:25:09.252Z,4.50
2023-04-09T21:27:36.153Z,4.50
2023-04-09T21:30:03.846Z,4.50
2023-04-09T21:32:31.427Z,4.50
2023-04-09T21:35:00.216Z,4.50
2023-04-09T21:37:28.916Z,4.50
2023-04-09T21:39:55.815Z,4.50
2023-04-09T21:42:22.883Z,4.50
2023-04-09T21:44:49.767Z,4.50
2023-04-09T21:47:16.950Z,4.40
2023-04-09T21:49:43.988Z,4.30
2023-04-09T21:52:14.896Z,4.30
2023-04-09T21:54:43.134Z,4.30
2023-04-09T21:57:11.164Z,4.20
2023-04-09T21:59:38.450Z,4.20
2023-04-09T22:02:05.772Z,4.20
2023-04-09T22:04:35.022Z,4.20
2023-04-09T22:07:02.616Z,4.20
2023-04-09T22:09:30.396Z,4.20
2023-04-09T22:11:58.605Z,4.20
2023-04-09T22:14:29.198Z,4.20
2023-04-09T22:16:58.474Z,4.30
2023-04-09T22:19:26.356Z,4.20
2023-04-09T22:21:53.811Z,4.30
2023-04-09T22:24:26.895Z,4.40
2023-04-09T22:26:54.141Z,4.50
2023-04-09T22:29:22.655Z,4.60
2023-04-09T22:31:49.556Z,4.70
2023-04-09T22:34:21.197Z,4.80
2023-04-09T22:36:49.167Z,4.70
2023-04-09T22:39:16.401Z,4.70
2023-04-09T22:41:43.419Z,4.60
2023-04-09T22:44:10.576Z,4.60
2023-04-09T22:46:38.126Z,4.60
2023-04-09T22:49:06.144Z,4.50
2023-04-09T22:51:35.872Z,4.50
2023-04-09T22:54:02.939Z,4.40
2023-04-09T22:56:31.732Z,4.30
2023-04-09T22:58:59.009Z,4.20
2023-04-09T23:01:26.942Z,4.20
2023-04-09T23:03:54.264Z,4.20
2023-04-09T23:06:22.589Z,4.30
2023-04-09T23:08:49.867Z,4.30
2023-04-09T23:11:17.364Z,4.30
2023-04-09T23:13:44.411Z,4.20
2023-04-09T23:16:11.610Z,4.10
2023-04-09T23:18:39.124Z,4.00
2023-04-09T23:21:10.612Z,3.90
2023-04-09T23:23:38.723Z,3.90
2023-04-09T23:26:05.976Z,3.90
2023-04-09T23:28:33.582Z,3.90
2023-04-09T23:31:00.668Z,3.90
2023-04-09T23:33:27.737Z,3.90
2023-04-09T23:35:54.809Z,3.90
2023-04-09T23:38:22.100Z,3.90
2023-04-09T23:40:49.335Z,3.90
2023-04-09T23:43:16.580Z,3.90
2023-04-09T23:45:46.512Z,3.90
2023-04-09T23:48:13.398Z,3.90
2023-04-09T23:50:41.313Z,3.90
2023-04-09T23:53:08.927Z,3.90
2023-04-09T23:55:41.079Z,3.90
2023-04-09T23:58:08.467Z,4.00
